Bay Area Weather


DO NOT USE THIS INFORMATION FOR FLIGHT PLANNING AND/OR NAVIGATION

Bay Area Weather Map


Current METARs

Observation for Reid-Hillview (KRHV) at 09/24/2017 21:52:00 PDT (03:02 hours old: probably stale)
Airspace now is GOLF. Weather outlook: VFR - visibility 10, ceiling 18000.
station: KRHV
type: routine report, cycle 5 (automatic report)
time: Mon Sep 25 04:52:00 2017
temperature: 19.0 C
dew point: 7.0 C
wind: calm
visibility: 10 miles
pressure: 1014.9 mb
sky: scattered clouds at 16000 feet
- LAST
METAR: KRHV 250452Z 00000KT 10SM SCT160 19/07 A2997 RMK LAST
Observation for San Jose (KSJC) at 09/24/2017 23:53:00 PDT
Airspace now is CHARLIE. Weather outlook: VFR - visibility 10, ceiling 18000.
station: KSJC
type: routine report, cycle 7 (automatic report)
time: Mon Sep 25 06:53:00 2017
temperature: 16.7 C
dew point: 6.7 C
wind: E at 3 knots
visibility: 10 miles
pressure: 1013.9 mb
sky: a few clouds at 200 feet
     a few clouds at 15000 feet
sea-level pressure: 1013.6 mb
remarks:
- Automated station (type 2)
- FU FEW002 LAST $
METAR: KSJC 250653Z 08003KT 10SM FEW002 FEW150 17/07 A2994 RMK AO2 SLP136 FU FEW002 LAST T01670067 $
Observation for Moffett Field (KNUQ) at 09/24/2017 23:56:00 PDT
Airspace now is ECHO. Weather outlook: VFR - visibility 10, ceiling 18000.
station: KNUQ
type: routine report, cycle 7 (automatic report)
time: Mon Sep 25 06:56:00 2017
temperature: 17.2 C
dew point: 5.6 C
wind: ESE at 3 knots
visibility: 10 miles
pressure: 1013.9 mb
sky: clear
sea-level pressure: 1014.1 mb
remarks:
- Automated station (type 2)
METAR: KNUQ 250656Z AUTO 12003KT 10SM CLR 17/06 A2994 RMK AO2 SLP141 T01720056
Observation for Palo Alto (KPAO) at 09/24/2017 20:47:00 PDT (04:07 hours old: probably stale)
Airspace now is GOLF. Weather outlook: VFR - visibility 10, ceiling 18000.
station: KPAO
type: routine report, cycle 4 (automatic report)
time: Mon Sep 25 03:47:00 2017
temperature: 18.0 C
dew point: 5.0 C
wind: WNW at 6 knots
visibility: 10 miles
pressure: 1013.5 mb
sky: clear
METAR: KPAO 250347Z 30006KT 10SM SKC 18/05 A2993
Observation for San Carlos (KSQL) at 09/25/2017 00:35:00 PDT
Airspace now is GOLF. Weather outlook: VFR - visibility 10, ceiling 18000.
station: KSQL
type: routine report, cycle 7 (automatic report)
time: Mon Sep 25 07:35:00 2017
temperature: 15.0 C
dew point: 10.0 C
wind: calm
visibility: 10 miles
pressure: 1014.2 mb
sky: clear
remarks:
- Automated station (type 2)
METAR: KSQL 250735Z AUTO 00000KT 10SM CLR 15/10 A2995 RMK AO2
Observation for Half Moon Bay (KHAF) at 09/25/2017 00:35:00 PDT
Airspace now is GOLF. Weather outlook: VFR - visibility 10, ceiling 18000.
station: KHAF
type: routine report, cycle 7 (automatic report)
time: Mon Sep 25 07:35:00 2017
temperature: 10.0 C
wind: calm
visibility: 10 miles
pressure: 1013.2 mb
sky: clear
remarks:
- Automated station (type 2)
METAR: KHAF 250735Z AUTO 00000KT 10SM CLR 10/ A2992 RMK AO2
Observation for San Francisco (KSFO) at 09/24/2017 23:56:00 PDT
Airspace now is BRAVO. Weather outlook: VFR - visibility 10, ceiling 18000.
station: KSFO
type: routine report, cycle 7 (automatic report)
time: Mon Sep 25 06:56:00 2017
temperature: 16.1 C
dew point: 10.0 C
wind: WNW at 8 knots
visibility: 10 miles
pressure: 1013.5 mb
sky: clear
sea-level pressure: 1013.6 mb
remarks:
- Automated station (type 2)
METAR: KSFO 250656Z 29008KT 10SM CLR 16/10 A2993 RMK AO2 SLP136 T01610100
Observation for Oakland (KOAK) at 09/24/2017 23:53:00 PDT
Airspace now is CHARLIE. Weather outlook: VFR - visibility 10, ceiling 18000.
station: KOAK
type: routine report, cycle 7 (automatic report)
time: Mon Sep 25 06:53:00 2017
temperature: 15.0 C
dew point: 11.7 C
wind: calm
visibility: 10 miles
pressure: 1013.9 mb
sky: clear
sea-level pressure: 1013.7 mb
remarks:
- Automated station (type 2)
METAR: KOAK 250653Z 00000KT 10SM CLR 15/12 A2994 RMK AO2 SLP137 T01500117
Observation for Hayward Executive (KHWD) at 09/24/2017 23:54:00 PDT
Airspace now is GOLF. Weather outlook: VFR - visibility 10, ceiling 18000.
station: KHWD
type: routine report, cycle 7 (automatic report)
time: Mon Sep 25 06:54:00 2017
temperature: 16.1 C
dew point: 5.6 C
wind: calm
visibility: 10 miles
pressure: 1013.9 mb
sky: clear
sea-level pressure: 1014.6 mb
remarks:
- Automated station (type 2)
METAR: KHWD 250654Z AUTO 00000KT 10SM CLR 16/06 A2994 RMK AO2 SLP146 T01610056
Observation for Livermore (KLVK) at 09/24/2017 23:53:00 PDT
Airspace now is GOLF. Weather outlook: VFR - visibility 10, ceiling 18000.
station: KLVK
type: routine report, cycle 7 (automatic report)
time: Mon Sep 25 06:53:00 2017
temperature: 15.0 C
dew point: 2.2 C
wind: calm
visibility: 10 miles
pressure: 1013.9 mb
sky: clear
sea-level pressure: 1013.5 mb
remarks:
- Automated station (type 2)
METAR: KLVK 250653Z AUTO 00000KT 10SM CLR 15/02 A2994 RMK AO2 SLP135 T01500022
Observation for South County (KE16) at 09/25/2017 00:35:00 PDT
Airspace now is GOLF. Weather outlook: VFR - visibility 10, ceiling 18000.
station: KE16
type: routine report, cycle 7 (automatic report)
time: Mon Sep 25 07:35:00 2017
temperature: 14.0 C
dew point: 3.0 C
wind: calm
visibility: 10 miles
pressure: 1014.9 mb
sky: clear
remarks:
- Automated station (type 2)
METAR: KE16 250735Z AUTO 00000KT 10SM CLR 14/03 A2997 RMK AO2
Observation for Hollister (KCVH) at 08/26/2017 16:05:00 PDT (2908:49 hours old: probably stale)
Airspace now is GOLF. Weather outlook: VFR - visibility 10, ceiling 18000.
station: KCVH
type: routine report, cycle 23 (automatic report)
time: Sat Aug 26 23:05:00 2017
temperature: 28.0 C
dew point: 12.0 C
wind: WSW at 16 knots
visibility: 10 miles
pressure: 1011.9 mb
sky: clear
remarks:
- Automated station
METAR: KCVH 262305Z AUTO 25016KT 10SM CLR 28/12 A2988 RMK AO1
Observation for Watsonville (KWVI) at 09/24/2017 23:53:00 PDT
Airspace now is GOLF. Weather outlook: VFR - visibility 10, ceiling 18000.
station: KWVI
type: routine report, cycle 7 (automatic report)
time: Mon Sep 25 06:53:00 2017
temperature: 12.2 C
dew point: 7.8 C
wind: NNW at 3 knots
visibility: 10 miles
pressure: 1014.2 mb
sky: clear
sea-level pressure: 1014.0 mb
remarks:
- Automated station (type 2)
METAR: KWVI 250653Z AUTO 33003KT 10SM CLR 12/08 A2995 RMK AO2 SLP140 T01220078
Observation for Napa County (KAPC) at 09/24/2017 23:54:00 PDT
Airspace now is GOLF. Weather outlook: VFR - visibility 10, ceiling 18000.
station: KAPC
type: routine report, cycle 7 (automatic report)
time: Mon Sep 25 06:54:00 2017
temperature: 11.7 C
dew point: 3.3 C
wind: calm
visibility: 10 miles
pressure: 1013.5 mb
sky: clear
sea-level pressure: 1012.6 mb
remarks:
- Automated station (type 2)
METAR: KAPC 250654Z AUTO 00000KT 10SM CLR 12/03 A2993 RMK AO2 SLP126 T01170033
Observation for Santa Rosa (KSTS) at 09/24/2017 23:53:00 PDT
Airspace now is GOLF. Weather outlook: VFR - visibility 10, ceiling 18000.
station: KSTS
type: routine report, cycle 7 (automatic report)
time: Mon Sep 25 06:53:00 2017
temperature: 12.8 C
dew point: 4.4 C
wind: calm
visibility: 10 miles
pressure: 1013.5 mb
sky: clear
sea-level pressure: 1012.7 mb
remarks:
- Automated station (type 2)
- $
METAR: KSTS 250653Z 00000KT 10SM CLR 13/04 A2993 RMK AO2 SLP127 T01280044 $

Approximate Bay Tour Route